首页
METAR-TAF:

METAR-TAF

机场 :

Berens River, 曼尼托巴, 加拿大

纬度: 52-21N, 经度: 097-02W, 海拔: 222米

当前天气观测

该预报发布于23小时和46分钟前的21:00 UTC
风速14节,风向西
温度 23°C
湿度 78%
气压 994 hPa
能見度: 24.1公里
散云层高于3000英尺, 积雨云.
散云层高于7000英尺
散云层高于25000英尺

METAR: CYBV 242100Z 27014KT 15SM SCT030CB SCT070 SCT250 23/19 A2934 RMK CB3AC1CI1 AC TR CI TR CB N MOVG E CB E MOVG E LAST STFD OBS/NEXT 251200UTC SLP940 DENSITY ALT 2500FT

时间: 15:46 (20:46 UTC)


TAF: 丢失

超过4000个机场的气象观测和天气预报(METAR&TAF报告)。

可查询的气象台以黄色和红色小点在地图上表示。

将鼠标移到小点上方,可查看气象台名称。

然后点击查看天气观测和预报。

如需切换地图:点击带黑十字的绿色按钮放大地图;点击带横线的绿色按钮缩小地图;或者点击绿色箭头查看邻近地区的地图。


METAR-TAF: